createdAt,value
2018-07-03T00:00:08.001Z,4.27
2018-07-03T00:02:37.172Z,3.37
2018-07-03T00:05:06.587Z,4.17
2018-07-03T00:07:36.107Z,3.87
2018-07-03T00:10:05.510Z,4.00
2018-07-03T00:12:34.575Z,3.60
2018-07-03T00:15:03.693Z,3.53
2018-07-03T00:17:32.828Z,3.90
2018-07-03T00:20:01.971Z,3.80
2018-07-03T00:22:31.731Z,4.10
2018-07-03T00:25:00.783Z,3.80
2018-07-03T00:27:29.934Z,3.73
2018-07-03T00:29:58.957Z,3.83
2018-07-03T00:32:28.038Z,3.70
2018-07-03T00:34:57.100Z,3.83
2018-07-03T00:37:26.175Z,4.37
2018-07-03T00:39:55.291Z,4.10
2018-07-03T00:42:24.379Z,4.13
2018-07-03T00:44:53.442Z,3.80
2018-07-03T00:47:22.519Z,3.90
2018-07-03T00:49:51.624Z,4.13
2018-07-03T00:52:20.603Z,4.30
2018-07-03T00:54:49.767Z,4.23
2018-07-03T00:57:18.810Z,4.33
2018-07-03T00:59:59.220Z,4.60
2018-07-03T01:02:28.201Z,3.87
2018-07-03T01:04:57.267Z,4.43
2018-07-03T01:07:26.339Z,4.67
2018-07-03T01:09:55.329Z,4.40
2018-07-03T01:12:24.398Z,4.40
2018-07-03T01:14:53.463Z,4.33
2018-07-03T01:17:22.512Z,4.00
2018-07-03T01:19:51.584Z,4.47
2018-07-03T01:22:20.639Z,4.93
2018-07-03T01:24:49.729Z,4.70
2018-07-03T01:27:18.834Z,4.93
2018-07-03T01:29:47.822Z,5.20
2018-07-03T01:32:16.899Z,5.13
2018-07-03T01:34:45.863Z,5.37
2018-07-03T01:37:14.850Z,5.03
2018-07-03T01:39:43.944Z,5.53
2018-07-03T01:42:13.074Z,5.10
2018-07-03T01:44:42.167Z,5.03
2018-07-03T01:47:11.195Z,5.07
2018-07-03T01:49:40.341Z,4.83
2018-07-03T01:52:09.536Z,4.70
2018-07-03T01:54:38.587Z,4.53
2018-07-03T01:57:07.667Z,4.80
2018-07-03T01:59:36.700Z,4.97
2018-07-03T02:02:05.718Z,5.37
2018-07-03T02:04:34.773Z,4.97
2018-07-03T02:07:03.779Z,4.87
2018-07-03T02:09:32.914Z,5.27
2018-07-03T02:12:01.969Z,5.13
2018-07-03T02:14:31.150Z,4.57
2018-07-03T02:17:00.869Z,4.93
2018-07-03T02:19:29.862Z,4.87
2018-07-03T02:21:58.886Z,4.80
2018-07-03T02:24:27.911Z,4.50
2018-07-03T02:26:57.000Z,4.60
2018-07-03T02:29:25.989Z,4.73
2018-07-03T02:31:55.099Z,5.30
2018-07-03T02:34:24.291Z,4.97
2018-07-03T02:36:53.770Z,4.90
2018-07-03T02:39:22.887Z,4.50
2018-07-03T02:41:51.951Z,4.80
2018-07-03T02:44:21.040Z,5.10
2018-07-03T02:46:50.210Z,4.93
2018-07-03T02:49:19.175Z,5.20
2018-07-03T02:51:48.146Z,5.03
2018-07-03T02:54:17.302Z,5.00
2018-07-03T02:56:46.295Z,5.00
2018-07-03T02:59:15.326Z,5.20
2018-07-03T03:01:44.347Z,5.10
2018-07-03T03:04:13.402Z,4.77
2018-07-03T03:06:42.572Z,5.30
2018-07-03T03:09:12.572Z,4.60
2018-07-03T03:11:41.775Z,5.67
2018-07-03T03:14:10.755Z,5.30
2018-07-03T03:16:39.760Z,5.57
2018-07-03T03:19:08.748Z,5.47
2018-07-03T03:21:39.658Z,5.40
2018-07-03T03:24:08.773Z,5.60
2018-07-03T03:26:37.863Z,5.30
2018-07-03T03:29:06.993Z,5.40
2018-07-03T03:31:36.098Z,5.63
2018-07-03T03:34:05.210Z,5.37
2018-07-03T03:36:34.470Z,5.33
2018-07-03T03:39:03.950Z,5.60
2018-07-03T03:41:33.048Z,5.60
2018-07-03T03:44:02.209Z,5.50
2018-07-03T03:46:31.313Z,5.53
2018-07-03T03:49:00.563Z,5.53
2018-07-03T03:51:29.750Z,5.73
2018-07-03T03:53:58.879Z,5.77
2018-07-03T03:56:27.961Z,5.53
2018-07-03T03:58:57.004Z,5.90
2018-07-03T04:01:26.099Z,5.80
2018-07-03T04:03:55.431Z,5.90
2018-07-03T04:06:24.543Z,5.60
2018-07-03T04:08:53.510Z,6.00
2018-07-03T04:11:22.523Z,5.83
2018-07-03T04:13:51.583Z,5.90
2018-07-03T04:16:20.713Z,6.00
2018-07-03T04:18:52.851Z,5.70
2018-07-03T04:21:22.121Z,6.47
2018-07-03T04:23:51.185Z,6.07
2018-07-03T04:26:20.643Z,6.00
2018-07-03T04:28:49.916Z,6.20
2018-07-03T04:31:18.976Z,6.27
2018-07-03T04:33:48.011Z,5.97
2018-07-03T04:36:19.241Z,5.70
2018-07-03T04:38:48.326Z,6.30
2018-07-03T04:41:17.501Z,5.93
2018-07-03T04:43:46.558Z,6.00
2018-07-03T04:46:15.614Z,6.27
2018-07-03T04:48:44.832Z,5.83
2018-07-03T04:51:13.942Z,5.50
2018-07-03T04:53:43.202Z,5.67
2018-07-03T04:56:12.267Z,5.83
2018-07-03T04:58:41.387Z,5.50
2018-07-03T05:01:10.403Z,5.43
2018-07-03T05:03:40.933Z,5.87
2018-07-03T05:06:09.972Z,5.43
2018-07-03T05:08:38.987Z,5.50
2018-07-03T05:11:08.110Z,5.60
2018-07-03T05:13:37.299Z,5.30
2018-07-03T05:16:06.545Z,5.83
2018-07-03T05:18:35.887Z,6.00
2018-07-03T05:21:06.537Z,6.07
2018-07-03T05:23:37.879Z,5.90
2018-07-03T05:26:06.997Z,5.83
2018-07-03T05:28:36.073Z,5.90
2018-07-03T05:31:05.090Z,5.73
2018-07-03T05:33:34.512Z,5.37
2018-07-03T05:36:03.723Z,5.73
2018-07-03T05:38:32.856Z,6.00
2018-07-03T05:41:01.986Z,5.60
2018-07-03T05:43:31.079Z,5.33
2018-07-03T05:46:00.052Z,6.07
2018-07-03T05:48:29.177Z,5.20
2018-07-03T05:50:58.298Z,4.57
2018-07-03T05:53:27.400Z,4.70
2018-07-03T05:55:56.443Z,4.90
2018-07-03T05:58:25.507Z,4.43
2018-07-03T06:00:54.975Z,4.67
2018-07-03T06:03:24.241Z,4.90
2018-07-03T06:05:53.250Z,4.30
2018-07-03T06:08:22.290Z,4.40
2018-07-03T06:10:51.499Z,4.20
2018-07-03T06:13:20.600Z,3.73
2018-07-03T06:15:49.663Z,3.90
2018-07-03T06:18:18.885Z,4.20
2018-07-03T06:20:47.694Z,4.30
2018-07-03T06:23:16.759Z,3.57
2018-07-03T06:25:45.789Z,3.60
2018-07-03T06:28:14.884Z,3.63
2018-07-03T06:30:43.894Z,3.80
2018-07-03T06:33:13.023Z,3.83
2018-07-03T06:35:42.235Z,3.10
2018-07-03T06:38:11.257Z,3.57
2018-07-03T06:40:40.270Z,3.20
2018-07-03T06:43:09.270Z,3.17
2018-07-03T06:45:38.511Z,3.20
2018-07-03T06:48:07.494Z,2.80
2018-07-03T06:50:36.570Z,2.77
2018-07-03T06:53:05.580Z,2.47
2018-07-03T06:55:34.625Z,2.37
2018-07-03T06:58:03.751Z,2.20
2018-07-03T07:00:32.794Z,1.87
2018-07-03T07:03:01.875Z,2.00
2018-07-03T07:05:30.906Z,2.10
2018-07-03T07:08:00.028Z,1.80
2018-07-03T07:10:29.074Z,1.43
2018-07-03T07:12:58.163Z,1.30
2018-07-03T07:15:27.186Z,1.20
2018-07-03T07:17:56.327Z,0.83
2018-07-03T07:20:25.343Z,1.00
2018-07-03T07:22:54.309Z,1.00
2018-07-03T07:25:23.367Z,0.90
2018-07-03T07:27:52.498Z,1.00
2018-07-03T07:30:21.558Z,1.13
2018-07-03T07:32:50.554Z,0.83
2018-07-03T07:35:19.662Z,0.80
2018-07-03T07:37:48.638Z,0.80
2018-07-03T07:40:17.998Z,0.70
2018-07-03T07:42:47.018Z,0.97
2018-07-03T07:45:15.990Z,0.73
2018-07-03T07:47:45.063Z,0.80
2018-07-03T07:50:14.086Z,0.90
2018-07-03T07:52:43.287Z,0.83
2018-07-03T07:55:12.411Z,0.80
2018-07-03T07:57:41.679Z,1.00
2018-07-03T08:00:10.905Z,0.83
2018-07-03T08:02:40.234Z,0.93
2018-07-03T08:05:16.178Z,0.73
2018-07-03T08:07:48.768Z,0.70
2018-07-03T08:10:18.131Z,0.70
2018-07-03T08:12:47.288Z,0.70
2018-07-03T08:15:16.336Z,0.60
2018-07-03T08:17:45.454Z,0.60
2018-07-03T08:20:14.590Z,0.30
2018-07-03T08:22:43.706Z,0.73
2018-07-03T08:25:12.727Z,0.50
2018-07-03T08:27:50.256Z,0.63
2018-07-03T08:30:20.557Z,0.60
2018-07-03T08:32:49.492Z,0.60
2018-07-03T08:35:18.482Z,0.60
2018-07-03T08:37:47.491Z,0.40
2018-07-03T08:40:16.579Z,0.47
2018-07-03T08:42:45.611Z,0.50
2018-07-03T08:45:14.662Z,0.50
2018-07-03T08:47:43.702Z,0.53
2018-07-03T08:50:12.740Z,0.70
2018-07-03T08:52:41.743Z,0.43
2018-07-03T08:55:10.858Z,0.60
2018-07-03T08:57:39.867Z,0.90
2018-07-03T09:00:09.407Z,0.60
2018-07-03T09:02:38.463Z,0.50
2018-07-03T09:05:07.487Z,0.70
2018-07-03T09:07:36.591Z,0.57
2018-07-03T09:10:05.691Z,0.50
2018-07-03T09:12:34.824Z,0.60
2018-07-03T09:15:04.332Z,0.60
2018-07-03T09:17:33.382Z,0.50
2018-07-03T09:20:02.435Z,0.53
2018-07-03T09:22:32.059Z,0.50
2018-07-03T09:25:01.347Z,0.80
2018-07-03T09:27:30.407Z,0.60
2018-07-03T09:30:04.650Z,0.50
2018-07-03T09:32:34.271Z,0.70
2018-07-03T09:35:03.457Z,0.80
2018-07-03T09:37:32.520Z,1.00
2018-07-03T09:40:01.529Z,0.97
2018-07-03T09:42:33.700Z,0.87
2018-07-03T09:45:02.800Z,0.93
2018-07-03T09:47:31.917Z,1.10
2018-07-03T09:50:00.908Z,1.10
2018-07-03T09:52:30.054Z,1.20
2018-07-03T09:54:59.262Z,1.10
2018-07-03T09:57:28.243Z,1.10
2018-07-03T09:59:58.589Z,1.10
2018-07-03T10:02:28.080Z,0.90
2018-07-03T10:04:57.227Z,1.00
2018-07-03T10:07:26.430Z,1.07
2018-07-03T10:09:56.395Z,1.20
2018-07-03T10:12:25.417Z,1.20
2018-07-03T10:14:57.388Z,1.30
2018-07-03T10:17:26.526Z,1.30
2018-07-03T10:19:55.588Z,1.27
2018-07-03T10:22:24.586Z,1.27
2018-07-03T10:24:53.755Z,1.20
2018-07-03T10:27:24.967Z,1.30
2018-07-03T10:29:54.232Z,1.13
2018-07-03T10:32:23.266Z,1.30
2018-07-03T10:34:52.263Z,1.33
2018-07-03T10:37:21.240Z,1.33
2018-07-03T10:39:50.198Z,1.37
2018-07-03T10:42:19.666Z,1.40
2018-07-03T10:44:48.793Z,1.40
2018-07-03T10:47:17.927Z,1.30
2018-07-03T10:49:47.029Z,1.40
2018-07-03T10:52:16.193Z,1.20
2018-07-03T10:54:45.410Z,1.13
2018-07-03T10:57:14.651Z,1.30
2018-07-03T10:59:43.783Z,1.33
2018-07-03T11:02:12.935Z,1.20
2018-07-03T11:04:42.005Z,1.20
2018-07-03T11:07:11.235Z,1.47
2018-07-03T11:09:40.467Z,1.23
2018-07-03T11:12:09.458Z,1.27
2018-07-03T11:14:38.679Z,1.13
2018-07-03T11:17:07.755Z,1.10
2018-07-03T11:19:37.304Z,1.20
2018-07-03T11:22:07.059Z,1.10
2018-07-03T11:24:36.189Z,1.20
2018-07-03T11:27:05.389Z,1.37
2018-07-03T11:29:34.539Z,1.37
2018-07-03T11:32:03.695Z,1.17
2018-07-03T11:34:32.726Z,1.00
2018-07-03T11:37:01.921Z,1.10
2018-07-03T11:39:31.019Z,1.10
2018-07-03T11:42:00.403Z,1.10
2018-07-03T11:44:29.526Z,1.23
2018-07-03T11:46:58.670Z,1.10
2018-07-03T11:49:28.892Z,1.30
2018-07-03T11:51:58.075Z,1.20
2018-07-03T11:54:27.231Z,1.50
2018-07-03T11:56:56.253Z,1.13
2018-07-03T11:59:25.378Z,1.20
2018-07-03T12:01:54.432Z,1.20
2018-07-03T12:04:23.681Z,1.03
2018-07-03T12:06:52.760Z,1.10
2018-07-03T12:09:22.743Z,1.23
2018-07-03T12:11:51.959Z,0.87
2018-07-03T12:14:21.066Z,1.00
2018-07-03T12:16:50.199Z,1.10
2018-07-03T12:19:19.258Z,1.00
2018-07-03T12:21:48.295Z,1.07
2018-07-03T12:24:17.296Z,1.17
2018-07-03T12:26:46.198Z,1.00
2018-07-03T12:29:15.185Z,1.13
2018-07-03T12:31:44.363Z,1.00
2018-07-03T12:34:13.420Z,0.90
2018-07-03T12:36:42.620Z,0.80
2018-07-03T12:39:12.158Z,1.00
2018-07-03T12:41:41.245Z,1.00
2018-07-03T12:44:10.346Z,0.90
2018-07-03T12:46:39.470Z,1.00
2018-07-03T12:49:08.455Z,0.97
2018-07-03T12:51:37.514Z,1.17
2018-07-03T12:54:06.677Z,1.10
2018-07-03T12:56:35.875Z,1.10
2018-07-03T12:59:05.003Z,1.20
2018-07-03T13:01:34.056Z,1.10
2018-07-03T13:04:03.118Z,1.20
2018-07-03T13:06:32.221Z,0.90
2018-07-03T13:09:01.311Z,0.90
2018-07-03T13:11:30.520Z,0.80
2018-07-03T13:13:59.859Z,1.00
2018-07-03T13:16:28.938Z,0.97
2018-07-03T13:18:58.107Z,0.97
2018-07-03T13:21:27.110Z,0.90
2018-07-03T13:23:56.182Z,0.80
2018-07-03T13:26:25.230Z,0.60
2018-07-03T13:28:54.227Z,0.70
2018-07-03T13:31:23.423Z,0.70
2018-07-03T13:33:52.454Z,0.63
2018-07-03T13:36:21.601Z,0.50
2018-07-03T13:38:50.662Z,0.37
2018-07-03T13:41:20.268Z,0.40
2018-07-03T13:43:49.395Z,0.50
2018-07-03T13:46:18.678Z,0.70
2018-07-03T13:48:47.682Z,0.60
2018-07-03T13:51:17.422Z,0.40
2018-07-03T13:53:48.174Z,0.50
2018-07-03T13:56:17.538Z,0.50
2018-07-03T13:58:46.511Z,0.47
2018-07-03T14:01:15.691Z,0.30
2018-07-03T14:03:44.994Z,0.63
2018-07-03T14:06:14.370Z,0.40
2018-07-03T14:08:43.403Z,0.50
2018-07-03T14:11:12.751Z,0.77
2018-07-03T14:13:41.903Z,0.40
2018-07-03T14:16:11.124Z,0.40
2018-07-03T14:18:40.254Z,0.30
2018-07-03T14:21:09.279Z,0.40
2018-07-03T14:23:38.578Z,0.40
2018-07-03T14:26:08.089Z,0.30
2018-07-03T14:28:37.150Z,0.50
2018-07-03T14:31:06.281Z,0.40
2018-07-03T14:33:35.355Z,0.40
2018-07-03T14:36:04.426Z,0.40
2018-07-03T14:38:33.442Z,0.50
2018-07-03T14:41:02.471Z,0.37
2018-07-03T14:43:31.521Z,0.35
2018-07-03T14:46:00.514Z,0.40
2018-07-03T14:48:29.490Z,0.40
2018-07-03T14:50:58.560Z,0.35
2018-07-03T14:53:27.823Z,0.42
2018-07-03T14:55:56.881Z,0.40
2018-07-03T14:58:27.051Z,0.30
2018-07-03T15:00:56.286Z,0.70
2018-07-03T15:03:25.387Z,0.37
2018-07-03T15:05:54.458Z,0.35
2018-07-03T15:08:23.558Z,0.40
2018-07-03T15:10:52.802Z,0.40
2018-07-03T15:13:21.843Z,0.40
2018-07-03T15:15:50.979Z,0.50
2018-07-03T15:18:23.984Z,0.43
2018-07-03T15:20:53.530Z,0.30
2018-07-03T15:23:23.934Z,0.30
2018-07-03T15:25:54.305Z,0.55
2018-07-03T15:28:23.438Z,0.60
2018-07-03T15:30:52.551Z,0.40
2018-07-03T15:33:21.638Z,0.37
2018-07-03T15:35:50.643Z,0.70
2018-07-03T15:38:19.653Z,0.40
2018-07-03T15:40:48.810Z,0.50
2018-07-03T15:43:17.944Z,0.53
2018-07-03T15:45:47.123Z,0.50
2018-07-03T15:48:16.114Z,0.50
2018-07-03T15:50:45.218Z,0.40
2018-07-03T15:53:14.281Z,0.50
2018-07-03T15:55:43.354Z,0.40
2018-07-03T15:58:12.698Z,0.40
2018-07-03T16:00:41.770Z,0.20
2018-07-03T16:03:24.724Z,0.33
2018-07-03T16:08:16.426Z,0.40
2018-07-03T16:10:45.674Z,0.40
2018-07-03T16:13:14.753Z,0.43
2018-07-03T16:15:44.372Z,0.50
2018-07-03T16:18:13.455Z,0.50
2018-07-03T16:20:42.849Z,0.47
2018-07-03T16:23:11.964Z,0.50
2018-07-03T16:25:40.959Z,0.33
2018-07-03T16:28:10.017Z,0.30
2018-07-03T16:30:38.998Z,0.40
2018-07-03T16:33:08.256Z,0.60
2018-07-03T16:35:37.612Z,0.40
2018-07-03T16:38:06.938Z,0.70
2018-07-03T16:40:36.099Z,0.50
2018-07-03T16:43:05.333Z,0.60
2018-07-03T16:45:34.628Z,0.70
2018-07-03T16:48:03.647Z,0.60
2018-07-03T16:50:32.619Z,0.83
2018-07-03T16:53:01.774Z,0.70
2018-07-03T16:55:30.986Z,0.60
2018-07-03T16:58:00.035Z,0.50
2018-07-03T17:00:29.520Z,0.43
2018-07-03T17:02:59.192Z,0.63
2018-07-03T17:05:28.347Z,0.80
2018-07-03T17:08:14.940Z,0.60
2018-07-03T17:10:45.230Z,0.67
2018-07-03T17:13:14.378Z,0.70
2018-07-03T17:15:43.409Z,0.73
2018-07-03T17:18:12.579Z,0.80
2018-07-03T17:20:41.680Z,0.80
2018-07-03T17:23:10.950Z,0.80
2018-07-03T17:25:40.114Z,0.80
2018-07-03T17:28:09.568Z,1.00
2018-07-03T17:30:38.740Z,0.80
2018-07-03T17:33:08.440Z,0.80
2018-07-03T17:35:37.637Z,0.90
2018-07-03T17:38:06.759Z,0.97
2018-07-03T17:40:47.364Z,0.80
2018-07-03T17:44:15.701Z,0.93
2018-07-03T17:46:45.446Z,0.80
2018-07-03T17:49:14.558Z,0.90
2018-07-03T17:51:43.715Z,0.90
2018-07-03T17:54:12.851Z,0.80
2018-07-03T17:56:44.897Z,0.93
2018-07-03T17:59:15.825Z,1.00
2018-07-03T18:01:45.097Z,0.90
2018-07-03T18:04:14.575Z,1.03
2018-07-03T18:06:43.630Z,1.03
2018-07-03T18:09:13.542Z,0.97
2018-07-03T18:11:42.727Z,1.10
2018-07-03T18:14:11.731Z,0.90
2018-07-03T18:16:44.778Z,1.20
2018-07-03T18:19:21.539Z,1.00
2018-07-03T18:21:51.532Z,0.90
2018-07-03T18:24:21.583Z,1.20
2018-07-03T18:26:51.917Z,1.03
2018-07-03T18:29:21.099Z,1.10
2018-07-03T18:31:50.328Z,1.10
2018-07-03T18:34:19.402Z,1.13
2018-07-03T18:36:49.083Z,1.37
2018-07-03T18:39:19.430Z,1.20
2018-07-03T18:41:49.263Z,1.10
2018-07-03T18:44:18.324Z,1.00
2018-07-03T18:46:48.182Z,1.20
2018-07-03T18:49:17.451Z,1.57
2018-07-03T18:51:46.655Z,1.40
2018-07-03T18:54:15.880Z,1.20
2018-07-03T18:56:44.956Z,1.30
2018-07-03T18:59:14.039Z,1.50
2018-07-03T19:01:45.200Z,1.43
2018-07-03T19:04:14.247Z,1.60
2018-07-03T19:06:43.517Z,1.60
2018-07-03T19:09:12.860Z,1.87
2018-07-03T19:11:41.935Z,2.27
2018-07-03T19:14:18.377Z,2.10
2018-07-03T19:16:47.676Z,1.83
2018-07-03T19:19:16.787Z,2.23
2018-07-03T19:21:45.990Z,1.53
2018-07-03T19:24:15.021Z,1.90
2018-07-03T19:26:45.607Z,1.80
2018-07-03T19:29:14.599Z,2.10
2018-07-03T19:31:43.859Z,2.10
2018-07-03T19:34:13.055Z,1.90
2018-07-03T19:36:42.195Z,2.10
2018-07-03T19:39:13.007Z,1.90
2018-07-03T19:41:42.883Z,1.97
2018-07-03T19:44:12.167Z,1.73
2018-07-03T19:46:43.395Z,1.90
2018-07-03T19:49:12.701Z,2.10
2018-07-03T19:51:41.740Z,1.90
2018-07-03T19:54:12.060Z,1.57
2018-07-03T19:56:41.184Z,2.20
2018-07-03T19:59:10.242Z,1.90
2018-07-03T20:01:39.476Z,2.07
2018-07-03T20:04:08.593Z,1.90
2018-07-03T20:09:56.355Z,2.80
2018-07-03T20:12:25.738Z,2.23
2018-07-03T20:14:54.782Z,2.47
2018-07-03T20:17:24.035Z,2.20
2018-07-03T20:19:53.162Z,2.40
2018-07-03T20:22:25.123Z,2.00
2018-07-03T20:24:54.252Z,2.20
2018-07-03T20:27:23.503Z,2.10
2018-07-03T20:29:52.790Z,2.20
2018-07-03T20:32:22.056Z,2.17
2018-07-03T20:34:51.392Z,2.37
2018-07-03T20:37:20.462Z,1.97
2018-07-03T20:39:49.595Z,2.37
2018-07-03T20:42:18.662Z,1.97
2018-07-03T20:44:47.754Z,2.10
2018-07-03T20:47:18.119Z,2.30
2018-07-03T20:49:47.331Z,2.37
2018-07-03T20:52:16.407Z,2.30
2018-07-03T20:54:45.539Z,2.50
2018-07-03T20:57:14.790Z,2.60
2018-07-03T20:59:43.984Z,2.43
2018-07-03T21:02:13.142Z,2.40
2018-07-03T21:04:42.407Z,2.53
2018-07-03T21:07:11.511Z,2.60
2018-07-03T21:09:41.530Z,2.50
2018-07-03T21:12:10.554Z,2.40
2018-07-03T21:14:44.788Z,2.50
2018-07-03T21:17:13.954Z,3.07
2018-07-03T21:19:44.658Z,2.40
2018-07-03T21:22:14.203Z,2.93
2018-07-03T21:24:43.237Z,2.80
2018-07-03T21:27:16.066Z,2.83
2018-07-03T21:29:45.281Z,2.50
2018-07-03T21:34:49.747Z,2.90
2018-07-03T21:37:18.798Z,3.00
2018-07-03T21:39:48.051Z,3.10
2018-07-03T21:42:17.178Z,2.93
2018-07-03T21:44:46.342Z,3.13
2018-07-03T21:47:15.437Z,3.00
2018-07-03T21:49:44.510Z,3.03
2018-07-03T21:52:13.550Z,3.27
2018-07-03T21:54:42.640Z,3.60
2018-07-03T21:57:11.826Z,3.53
2018-07-03T21:59:40.969Z,3.47
2018-07-03T22:02:10.058Z,3.43
2018-07-03T22:04:39.959Z,3.30
2018-07-03T22:07:08.964Z,3.47
2018-07-03T22:09:37.986Z,3.37
2018-07-03T22:12:07.103Z,3.77
2018-07-03T22:14:37.295Z,3.57
2018-07-03T22:17:06.800Z,4.00
2018-07-03T22:19:35.960Z,3.37
2018-07-03T22:22:05.087Z,3.97
2018-07-03T22:24:34.851Z,3.77
2018-07-03T22:27:04.025Z,3.23
2018-07-03T22:29:33.023Z,3.47
2018-07-03T22:32:02.219Z,3.63
2018-07-03T22:34:31.214Z,3.57
2018-07-03T22:37:00.244Z,3.63
2018-07-03T22:39:29.414Z,3.43
2018-07-03T22:41:58.108Z,3.67
2018-07-03T22:44:26.988Z,3.80
2018-07-03T22:46:56.047Z,3.50
2018-07-03T22:49:25.060Z,3.30
2018-07-03T22:51:54.240Z,4.17
2018-07-03T22:54:23.231Z,3.70
2018-07-03T22:56:52.242Z,4.10
2018-07-03T22:59:21.234Z,3.73
2018-07-03T23:01:50.240Z,3.80
2018-07-03T23:04:19.335Z,4.30
2018-07-03T23:06:48.346Z,3.70
2018-07-03T23:09:17.423Z,3.77
2018-07-03T23:11:46.442Z,4.13
2018-07-03T23:14:16.585Z,3.70
2018-07-03T23:16:45.590Z,4.20
2018-07-03T23:19:14.636Z,4.20
2018-07-03T23:21:43.648Z,3.97
2018-07-03T23:24:12.703Z,4.30
2018-07-03T23:26:41.858Z,4.77
2018-07-03T23:29:11.058Z,3.70
2018-07-03T23:31:40.162Z,3.53
2018-07-03T23:34:09.520Z,3.80
2018-07-03T23:36:38.526Z,4.03
2018-07-03T23:39:08.697Z,3.90
2018-07-03T23:41:37.858Z,3.83
2018-07-03T23:44:06.963Z,3.90
2018-07-03T23:46:47.183Z,3.80
2018-07-03T23:49:27.492Z,4.30
2018-07-03T23:52:07.903Z,3.67
2018-07-03T23:54:48.244Z,4.00
2018-07-03T23:57:28.467Z,4.27
